sensor_id;sensor_type;location;lat;lon;timestamp;P1;durP1;ratioP1;P2;durP2;ratioP2
16699;SDS011;8466;52.286;21.124;2023-09-08T00:00:06;10.02;;;7.25;;
16699;SDS011;8466;52.286;21.124;2023-09-08T00:02:36;7.45;;;6.75;;
16699;SDS011;8466;52.286;21.124;2023-09-08T00:05:05;10.13;;;6.85;;
16699;SDS011;8466;52.286;21.124;2023-09-08T00:07:36;6.97;;;6.38;;
16699;SDS011;8466;52.286;21.124;2023-09-08T00:10:04;7.20;;;6.50;;
16699;SDS011;8466;52.286;21.124;2023-09-08T00:12:34;7.18;;;6.57;;
16699;SDS011;8466;52.286;21.124;2023-09-08T00:15:02;8.70;;;6.60;;
16699;SDS011;8466;52.286;21.124;2023-09-08T00:17:32;7.55;;;6.85;;
16699;SDS011;8466;52.286;21.124;2023-09-08T00:20:00;7.28;;;6.50;;
16699;SDS011;8466;52.286;21.124;2023-09-08T00:22:29;7.50;;;6.80;;
16699;SDS011;8466;52.286;21.124;2023-09-08T00:25:00;7.70;;;6.97;;
16699;SDS011;8466;52.286;21.124;2023-09-08T00:27:28;11.63;;;6.97;;
16699;SDS011;8466;52.286;21.124;2023-09-08T00:29:57;6.68;;;6.18;;
16699;SDS011;8466;52.286;21.124;2023-09-08T00:32:28;7.45;;;6.75;;
16699;SDS011;8466;52.286;21.124;2023-09-08T00:34:57;7.65;;;6.85;;
16699;SDS011;8466;52.286;21.124;2023-09-08T00:37:26;9.13;;;7.03;;
16699;SDS011;8466;52.286;21.124;2023-09-08T00:39:54;6.82;;;6.20;;
16699;SDS011;8466;52.286;21.124;2023-09-08T00:42:24;9.65;;;6.57;;
16699;SDS011;8466;52.286;21.124;2023-09-08T00:44:53;7.22;;;6.63;;
16699;SDS011;8466;52.286;21.124;2023-09-08T00:47:22;9.38;;;6.78;;
16699;SDS011;8466;52.286;21.124;2023-09-08T00:49:50;6.97;;;6.35;;
16699;SDS011;8466;52.286;21.124;2023-09-08T00:52:19;7.10;;;6.50;;
16699;SDS011;8466;52.286;21.124;2023-09-08T00:54:48;7.40;;;6.70;;
16699;SDS011;8466;52.286;21.124;2023-09-08T00:57:17;6.88;;;6.28;;
16699;SDS011;8466;52.286;21.124;2023-09-08T00:59:47;7.13;;;6.40;;
16699;SDS011;8466;52.286;21.124;2023-09-08T01:02:16;6.78;;;6.25;;
16699;SDS011;8466;52.286;21.124;2023-09-08T01:04:45;7.00;;;6.32;;
16699;SDS011;8466;52.286;21.124;2023-09-08T01:07:13;6.55;;;5.97;;
16699;SDS011;8466;52.286;21.124;2023-09-08T01:09:43;6.80;;;6.10;;
16699;SDS011;8466;52.286;21.124;2023-09-08T01:12:13;6.75;;;6.15;;
16699;SDS011;8466;52.286;21.124;2023-09-08T01:14:43;7.25;;;6.47;;
16699;SDS011;8466;52.286;21.124;2023-09-08T01:17:12;6.93;;;6.32;;
16699;SDS011;8466;52.286;21.124;2023-09-08T01:19:41;8.13;;;6.25;;
16699;SDS011;8466;52.286;21.124;2023-09-08T01:22:21;6.43;;;5.93;;
16699;SDS011;8466;52.286;21.124;2023-09-08T01:25:11;6.57;;;6.07;;
16699;SDS011;8466;52.286;21.124;2023-09-08T01:27:44;9.82;;;6.28;;
16699;SDS011;8466;52.286;21.124;2023-09-08T01:30:15;6.40;;;5.80;;
16699;SDS011;8466;52.286;21.124;2023-09-08T01:32:44;6.18;;;5.57;;
16699;SDS011;8466;52.286;21.124;2023-09-08T01:35:14;6.53;;;5.63;;
16699;SDS011;8466;52.286;21.124;2023-09-08T01:37:44;6.75;;;6.10;;
16699;SDS011;8466;52.286;21.124;2023-09-08T01:40:15;6.28;;;5.68;;
16699;SDS011;8466;52.286;21.124;2023-09-08T01:42:45;6.10;;;5.50;;
16699;SDS011;8466;52.286;21.124;2023-09-08T01:45:14;7.20;;;6.50;;
16699;SDS011;8466;52.286;21.124;2023-09-08T01:47:42;6.70;;;5.90;;
16699;SDS011;8466;52.286;21.124;2023-09-08T01:50:11;7.25;;;5.97;;
16699;SDS011;8466;52.286;21.124;2023-09-08T01:52:40;7.28;;;6.55;;
16699;SDS011;8466;52.286;21.124;2023-09-08T01:55:09;9.30;;;6.32;;
16699;SDS011;8466;52.286;21.124;2023-09-08T01:57:40;9.00;;;6.28;;
16699;SDS011;8466;52.286;21.124;2023-09-08T02:00:09;6.95;;;6.25;;
16699;SDS011;8466;52.286;21.124;2023-09-08T02:02:38;7.57;;;6.50;;
16699;SDS011;8466;52.286;21.124;2023-09-08T02:05:08;7.60;;;6.07;;
16699;SDS011;8466;52.286;21.124;2023-09-08T02:07:36;7.05;;;6.30;;
16699;SDS011;8466;52.286;21.124;2023-09-08T02:10:05;6.47;;;5.85;;
16699;SDS011;8466;52.286;21.124;2023-09-08T02:12:34;6.55;;;5.95;;
16699;SDS011;8466;52.286;21.124;2023-09-08T02:15:05;6.85;;;6.28;;
16699;SDS011;8466;52.286;21.124;2023-09-08T02:17:35;7.28;;;6.55;;
16699;SDS011;8466;52.286;21.124;2023-09-08T02:20:05;7.07;;;6.47;;
16699;SDS011;8466;52.286;21.124;2023-09-08T02:22:34;7.05;;;6.45;;
16699;SDS011;8466;52.286;21.124;2023-09-08T02:25:03;8.20;;;6.30;;
16699;SDS011;8466;52.286;21.124;2023-09-08T02:27:32;7.90;;;6.32;;
16699;SDS011;8466;52.286;21.124;2023-09-08T02:30:01;6.20;;;5.60;;
16699;SDS011;8466;52.286;21.124;2023-09-08T02:32:31;6.72;;;6.13;;
16699;SDS011;8466;52.286;21.124;2023-09-08T02:34:59;6.78;;;6.07;;
16699;SDS011;8466;52.286;21.124;2023-09-08T02:37:28;6.53;;;6.03;;
16699;SDS011;8466;52.286;21.124;2023-09-08T02:39:57;7.90;;;6.22;;
16699;SDS011;8466;52.286;21.124;2023-09-08T02:42:26;7.22;;;6.43;;
16699;SDS011;8466;52.286;21.124;2023-09-08T02:44:54;7.63;;;6.38;;
16699;SDS011;8466;52.286;21.124;2023-09-08T02:47:23;6.35;;;5.85;;
16699;SDS011;8466;52.286;21.124;2023-09-08T02:49:53;6.43;;;5.82;;
16699;SDS011;8466;52.286;21.124;2023-09-08T02:52:21;6.82;;;6.22;;
16699;SDS011;8466;52.286;21.124;2023-09-08T02:54:50;6.70;;;6.13;;
16699;SDS011;8466;52.286;21.124;2023-09-08T02:57:19;6.75;;;6.15;;
16699;SDS011;8466;52.286;21.124;2023-09-08T02:59:48;7.65;;;6.25;;
16699;SDS011;8466;52.286;21.124;2023-09-08T03:02:18;6.22;;;5.72;;
16699;SDS011;8466;52.286;21.124;2023-09-08T03:04:47;6.63;;;6.03;;
16699;SDS011;8466;52.286;21.124;2023-09-08T03:07:17;7.10;;;6.40;;
16699;SDS011;8466;52.286;21.124;2023-09-08T03:09:46;7.07;;;6.38;;
16699;SDS011;8466;52.286;21.124;2023-09-08T03:12:15;6.45;;;5.85;;
16699;SDS011;8466;52.286;21.124;2023-09-08T03:14:43;7.80;;;6.40;;
16699;SDS011;8466;52.286;21.124;2023-09-08T03:17:12;6.43;;;5.88;;
16699;SDS011;8466;52.286;21.124;2023-09-08T03:19:40;6.60;;;6.00;;
16699;SDS011;8466;52.286;21.124;2023-09-08T03:22:13;8.57;;;6.68;;
16699;SDS011;8466;52.286;21.124;2023-09-08T03:24:43;6.60;;;6.03;;
16699;SDS011;8466;52.286;21.124;2023-09-08T03:27:11;7.22;;;6.53;;
16699;SDS011;8466;52.286;21.124;2023-09-08T03:29:40;7.47;;;6.65;;
16699;SDS011;8466;52.286;21.124;2023-09-08T03:32:08;6.75;;;6.15;;
16699;SDS011;8466;52.286;21.124;2023-09-08T03:34:37;8.35;;;6.25;;
16699;SDS011;8466;52.286;21.124;2023-09-08T03:37:07;7.05;;;6.35;;
16699;SDS011;8466;52.286;21.124;2023-09-08T03:39:35;7.25;;;6.15;;
16699;SDS011;8466;52.286;21.124;2023-09-08T03:42:06;7.55;;;6.65;;
16699;SDS011;8466;52.286;21.124;2023-09-08T03:44:34;7.25;;;6.60;;
16699;SDS011;8466;52.286;21.124;2023-09-08T03:47:03;7.70;;;6.82;;
16699;SDS011;8466;52.286;21.124;2023-09-08T03:49:31;7.43;;;6.70;;
16699;SDS011;8466;52.286;21.124;2023-09-08T03:52:00;8.32;;;7.20;;
16699;SDS011;8466;52.286;21.124;2023-09-08T03:54:29;7.10;;;6.50;;
16699;SDS011;8466;52.286;21.124;2023-09-08T03:56:58;7.80;;;6.95;;
16699;SDS011;8466;52.286;21.124;2023-09-08T03:59:28;8.05;;;7.22;;
16699;SDS011;8466;52.286;21.124;2023-09-08T04:01:57;7.32;;;6.10;;
16699;SDS011;8466;52.286;21.124;2023-09-08T04:04:27;7.57;;;6.88;;
16699;SDS011;8466;52.286;21.124;2023-09-08T04:06:55;7.30;;;6.70;;
16699;SDS011;8466;52.286;21.124;2023-09-08T04:09:24;7.78;;;6.97;;
16699;SDS011;8466;52.286;21.124;2023-09-08T04:11:54;7.88;;;7.10;;
16699;SDS011;8466;52.286;21.124;2023-09-08T04:14:23;7.53;;;6.70;;
16699;SDS011;8466;52.286;21.124;2023-09-08T04:16:56;6.82;;;6.32;;
16699;SDS011;8466;52.286;21.124;2023-09-08T04:19:25;8.05;;;7.10;;
16699;SDS011;8466;52.286;21.124;2023-09-08T04:21:54;9.45;;;7.32;;
16699;SDS011;8466;52.286;21.124;2023-09-08T04:24:22;8.35;;;7.38;;
16699;SDS011;8466;52.286;21.124;2023-09-08T04:26:51;12.90;;;7.97;;
16699;SDS011;8466;52.286;21.124;2023-09-08T04:29:20;8.63;;;7.38;;
16699;SDS011;8466;52.286;21.124;2023-09-08T04:31:48;8.20;;;7.35;;
16699;SDS011;8466;52.286;21.124;2023-09-08T04:34:18;9.55;;;7.80;;
16699;SDS011;8466;52.286;21.124;2023-09-08T04:36:47;8.82;;;7.90;;
16699;SDS011;8466;52.286;21.124;2023-09-08T04:39:16;11.20;;;7.80;;
16699;SDS011;8466;52.286;21.124;2023-09-08T04:41:44;8.20;;;7.05;;
16699;SDS011;8466;52.286;21.124;2023-09-08T04:44:13;10.15;;;8.27;;
16699;SDS011;8466;52.286;21.124;2023-09-08T04:46:41;9.15;;;6.80;;
16699;SDS011;8466;52.286;21.124;2023-09-08T04:49:10;11.02;;;7.88;;
16699;SDS011;8466;52.286;21.124;2023-09-08T04:51:40;9.88;;;7.07;;
16699;SDS011;8466;52.286;21.124;2023-09-08T04:54:09;7.90;;;6.70;;
16699;SDS011;8466;52.286;21.124;2023-09-08T04:56:38;12.88;;;7.40;;
16699;SDS011;8466;52.286;21.124;2023-09-08T04:59:07;9.25;;;7.10;;
16699;SDS011;8466;52.286;21.124;2023-09-08T05:01:35;6.85;;;6.13;;
16699;SDS011;8466;52.286;21.124;2023-09-08T05:04:04;9.15;;;6.97;;
16699;SDS011;8466;52.286;21.124;2023-09-08T05:06:33;8.20;;;7.25;;
16699;SDS011;8466;52.286;21.124;2023-09-08T05:09:03;7.75;;;6.95;;
16699;SDS011;8466;52.286;21.124;2023-09-08T05:11:33;9.68;;;7.32;;
16699;SDS011;8466;52.286;21.124;2023-09-08T05:14:02;8.32;;;6.80;;
16699;SDS011;8466;52.286;21.124;2023-09-08T05:16:31;9.30;;;7.45;;
16699;SDS011;8466;52.286;21.124;2023-09-08T05:19:13;9.43;;;7.00;;
16699;SDS011;8466;52.286;21.124;2023-09-08T05:21:42;11.82;;;7.38;;
16699;SDS011;8466;52.286;21.124;2023-09-08T05:24:12;9.45;;;7.20;;
16699;SDS011;8466;52.286;21.124;2023-09-08T05:26:41;9.90;;;7.20;;
16699;SDS011;8466;52.286;21.124;2023-09-08T05:29:14;8.38;;;7.47;;
16699;SDS011;8466;52.286;21.124;2023-09-08T05:31:43;9.43;;;7.18;;
16699;SDS011;8466;52.286;21.124;2023-09-08T05:34:11;8.63;;;7.72;;
16699;SDS011;8466;52.286;21.124;2023-09-08T05:36:40;8.48;;;7.13;;
16699;SDS011;8466;52.286;21.124;2023-09-08T05:39:09;8.52;;;7.53;;
16699;SDS011;8466;52.286;21.124;2023-09-08T05:41:41;7.80;;;7.00;;
16699;SDS011;8466;52.286;21.124;2023-09-08T05:44:10;10.98;;;7.50;;
16699;SDS011;8466;52.286;21.124;2023-09-08T05:46:39;10.13;;;8.10;;
16699;SDS011;8466;52.286;21.124;2023-09-08T05:49:08;8.65;;;7.82;;
16699;SDS011;8466;52.286;21.124;2023-09-08T05:51:36;9.55;;;7.90;;
16699;SDS011;8466;52.286;21.124;2023-09-08T05:54:05;9.52;;;8.23;;
16699;SDS011;8466;52.286;21.124;2023-09-08T05:56:34;10.43;;;8.10;;
16699;SDS011;8466;52.286;21.124;2023-09-08T05:59:04;9.90;;;7.60;;
16699;SDS011;8466;52.286;21.124;2023-09-08T06:01:32;7.80;;;7.05;;
16699;SDS011;8466;52.286;21.124;2023-09-08T06:04:01;12.68;;;7.45;;
16699;SDS011;8466;52.286;21.124;2023-09-08T06:06:30;7.72;;;6.85;;
16699;SDS011;8466;52.286;21.124;2023-09-08T06:08:59;8.20;;;7.30;;
16699;SDS011;8466;52.286;21.124;2023-09-08T06:11:27;7.65;;;6.85;;
16699;SDS011;8466;52.286;21.124;2023-09-08T06:13:56;10.75;;;7.30;;
16699;SDS011;8466;52.286;21.124;2023-09-08T06:16:27;12.63;;;7.75;;
16699;SDS011;8466;52.286;21.124;2023-09-08T06:18:56;9.68;;;7.80;;
16699;SDS011;8466;52.286;21.124;2023-09-08T06:21:25;10.68;;;8.23;;
16699;SDS011;8466;52.286;21.124;2023-09-08T06:23:53;8.77;;;7.55;;
16699;SDS011;8466;52.286;21.124;2023-09-08T06:26:22;8.90;;;7.88;;
16699;SDS011;8466;52.286;21.124;2023-09-08T06:28:51;13.23;;;8.30;;
16699;SDS011;8466;52.286;21.124;2023-09-08T06:31:20;11.32;;;7.65;;
16699;SDS011;8466;52.286;21.124;2023-09-08T06:33:50;9.35;;;7.78;;
16699;SDS011;8466;52.286;21.124;2023-09-08T06:36:19;13.27;;;7.93;;
16699;SDS011;8466;52.286;21.124;2023-09-08T06:38:47;11.75;;;7.75;;
16699;SDS011;8466;52.286;21.124;2023-09-08T06:41:16;8.60;;;7.00;;
16699;SDS011;8466;52.286;21.124;2023-09-08T06:43:45;10.15;;;7.55;;
16699;SDS011;8466;52.286;21.124;2023-09-08T06:46:13;8.77;;;7.80;;
16699;SDS011;8466;52.286;21.124;2023-09-08T06:48:43;9.20;;;7.97;;
16699;SDS011;8466;52.286;21.124;2023-09-08T06:51:13;10.52;;;7.38;;
16699;SDS011;8466;52.286;21.124;2023-09-08T06:53:42;9.73;;;7.18;;
16699;SDS011;8466;52.286;21.124;2023-09-08T06:56:11;8.82;;;7.75;;
16699;SDS011;8466;52.286;21.124;2023-09-08T06:58:40;13.75;;;8.18;;
16699;SDS011;8466;52.286;21.124;2023-09-08T07:01:09;14.00;;;7.82;;
16699;SDS011;8466;52.286;21.124;2023-09-08T07:03:37;9.10;;;7.07;;
16699;SDS011;8466;52.286;21.124;2023-09-08T07:06:06;9.05;;;7.20;;
16699;SDS011;8466;52.286;21.124;2023-09-08T07:08:36;10.95;;;7.50;;
16699;SDS011;8466;52.286;21.124;2023-09-08T07:11:05;8.52;;;7.63;;
16699;SDS011;8466;52.286;21.124;2023-09-08T07:13:34;8.45;;;7.57;;
16699;SDS011;8466;52.286;21.124;2023-09-08T07:16:03;8.68;;;7.78;;
16699;SDS011;8466;52.286;21.124;2023-09-08T07:18:32;9.95;;;7.68;;
16699;SDS011;8466;52.286;21.124;2023-09-08T07:21:03;8.82;;;7.22;;
16699;SDS011;8466;52.286;21.124;2023-09-08T07:23:32;7.63;;;6.90;;
16699;SDS011;8466;52.286;21.124;2023-09-08T07:26:04;12.90;;;8.10;;
16699;SDS011;8466;52.286;21.124;2023-09-08T07:28:33;9.57;;;7.60;;
16699;SDS011;8466;52.286;21.124;2023-09-08T07:31:03;9.30;;;6.95;;
16699;SDS011;8466;52.286;21.124;2023-09-08T07:33:32;11.23;;;7.15;;
16699;SDS011;8466;52.286;21.124;2023-09-08T07:36:03;10.20;;;6.85;;
16699;SDS011;8466;52.286;21.124;2023-09-08T07:38:33;9.82;;;7.57;;
16699;SDS011;8466;52.286;21.124;2023-09-08T07:41:02;8.13;;;7.13;;
16699;SDS011;8466;52.286;21.124;2023-09-08T07:43:32;10.18;;;7.13;;
16699;SDS011;8466;52.286;21.124;2023-09-08T07:46:02;11.40;;;7.38;;
16699;SDS011;8466;52.286;21.124;2023-09-08T07:48:30;13.45;;;7.03;;
16699;SDS011;8466;52.286;21.124;2023-09-08T07:51:00;10.43;;;7.72;;
16699;SDS011;8466;52.286;21.124;2023-09-08T07:53:28;10.98;;;7.10;;
16699;SDS011;8466;52.286;21.124;2023-09-08T07:55:57;10.73;;;7.43;;
16699;SDS011;8466;52.286;21.124;2023-09-08T07:58:26;10.52;;;6.63;;
16699;SDS011;8466;52.286;21.124;2023-09-08T08:00:56;7.82;;;6.93;;
16699;SDS011;8466;52.286;21.124;2023-09-08T08:03:28;7.93;;;7.18;;
16699;SDS011;8466;52.286;21.124;2023-09-08T08:05:57;10.40;;;7.35;;
16699;SDS011;8466;52.286;21.124;2023-09-08T08:08:26;9.25;;;7.35;;
16699;SDS011;8466;52.286;21.124;2023-09-08T08:10:55;9.23;;;7.18;;
16699;SDS011;8466;52.286;21.124;2023-09-08T08:13:23;11.45;;;7.45;;
16699;SDS011;8466;52.286;21.124;2023-09-08T08:15:52;13.05;;;7.57;;
16699;SDS011;8466;52.286;21.124;2023-09-08T08:18:22;10.15;;;7.45;;
16699;SDS011;8466;52.286;21.124;2023-09-08T08:20:51;14.65;;;8.18;;
16699;SDS011;8466;52.286;21.124;2023-09-08T08:23:20;8.13;;;6.80;;
16699;SDS011;8466;52.286;21.124;2023-09-08T08:25:49;8.95;;;6.60;;
16699;SDS011;8466;52.286;21.124;2023-09-08T08:28:17;7.63;;;6.80;;
16699;SDS011;8466;52.286;21.124;2023-09-08T08:30:46;9.48;;;6.90;;
16699;SDS011;8466;52.286;21.124;2023-09-08T08:33:15;8.95;;;7.30;;
16699;SDS011;8466;52.286;21.124;2023-09-08T08:35:49;14.48;;;7.47;;
16699;SDS011;8466;52.286;21.124;2023-09-08T08:38:18;9.93;;;6.63;;
16699;SDS011;8466;52.286;21.124;2023-09-08T08:40:47;8.75;;;6.55;;
16699;SDS011;8466;52.286;21.124;2023-09-08T08:43:16;7.68;;;6.50;;
16699;SDS011;8466;52.286;21.124;2023-09-08T08:45:45;10.60;;;6.20;;
16699;SDS011;8466;52.286;21.124;2023-09-08T08:48:15;6.32;;;5.72;;
16699;SDS011;8466;52.286;21.124;2023-09-08T08:50:49;7.78;;;5.90;;
16699;SDS011;8466;52.286;21.124;2023-09-08T08:53:20;7.57;;;6.30;;
16699;SDS011;8466;52.286;21.124;2023-09-08T08:55:49;8.07;;;7.28;;
16699;SDS011;8466;52.286;21.124;2023-09-08T08:58:20;6.97;;;6.20;;
16699;SDS011;8466;52.286;21.124;2023-09-08T09:00:53;6.75;;;5.80;;
16699;SDS011;8466;52.286;21.124;2023-09-08T09:03:24;16.45;;;6.45;;
16699;SDS011;8466;52.286;21.124;2023-09-08T09:05:57;8.32;;;6.38;;
16699;SDS011;8466;52.286;21.124;2023-09-08T09:08:27;7.45;;;6.43;;
16699;SDS011;8466;52.286;21.124;2023-09-08T09:10:56;6.63;;;5.57;;
16699;SDS011;8466;52.286;21.124;2023-09-08T09:13:25;7.95;;;6.05;;
16699;SDS011;8466;52.286;21.124;2023-09-08T09:15:57;9.32;;;6.07;;
16699;SDS011;8466;52.286;21.124;2023-09-08T09:18:30;7.53;;;5.60;;
16699;SDS011;8466;52.286;21.124;2023-09-08T09:21:01;11.60;;;6.00;;
16699;SDS011;8466;52.286;21.124;2023-09-08T09:23:30;9.90;;;5.78;;
16699;SDS011;8466;52.286;21.124;2023-09-08T09:26:01;8.57;;;6.50;;
16699;SDS011;8466;52.286;21.124;2023-09-08T09:28:31;6.72;;;5.55;;
16699;SDS011;8466;52.286;21.124;2023-09-08T09:31:00;6.65;;;6.07;;
16699;SDS011;8466;52.286;21.124;2023-09-08T09:33:29;8.60;;;6.28;;
16699;SDS011;8466;52.286;21.124;2023-09-08T09:35:58;7.93;;;5.70;;
16699;SDS011;8466;52.286;21.124;2023-09-08T09:38:29;7.60;;;5.45;;
16699;SDS011;8466;52.286;21.124;2023-09-08T09:40:58;8.52;;;5.55;;
16699;SDS011;8466;52.286;21.124;2023-09-08T09:43:27;9.23;;;5.28;;
16699;SDS011;8466;52.286;21.124;2023-09-08T09:45:57;8.00;;;5.07;;
16699;SDS011;8466;52.286;21.124;2023-09-08T09:48:26;5.70;;;4.97;;
16699;SDS011;8466;52.286;21.124;2023-09-08T09:50:56;8.77;;;5.10;;
16699;SDS011;8466;52.286;21.124;2023-09-08T09:53:26;6.95;;;4.75;;
16699;SDS011;8466;52.286;21.124;2023-09-08T09:55:57;5.88;;;4.88;;
16699;SDS011;8466;52.286;21.124;2023-09-08T09:58:26;5.90;;;5.00;;
16699;SDS011;8466;52.286;21.124;2023-09-08T10:00:56;5.20;;;4.70;;
16699;SDS011;8466;52.286;21.124;2023-09-08T10:03:27;7.97;;;5.72;;
16699;SDS011;8466;52.286;21.124;2023-09-08T10:05:57;8.87;;;5.07;;
16699;SDS011;8466;52.286;21.124;2023-09-08T10:08:28;5.15;;;4.63;;
16699;SDS011;8466;52.286;21.124;2023-09-08T10:11:00;5.72;;;4.28;;
16699;SDS011;8466;52.286;21.124;2023-09-08T10:13:33;6.07;;;5.45;;
16699;SDS011;8466;52.286;21.124;2023-09-08T10:16:08;5.75;;;4.68;;
16699;SDS011;8466;52.286;21.124;2023-09-08T10:18:41;5.38;;;4.53;;
16699;SDS011;8466;52.286;21.124;2023-09-08T10:21:13;6.32;;;5.10;;
16699;SDS011;8466;52.286;21.124;2023-09-08T10:23:47;7.85;;;5.45;;
16699;SDS011;8466;52.286;21.124;2023-09-08T10:26:22;7.22;;;5.40;;
16699;SDS011;8466;52.286;21.124;2023-09-08T10:28:54;5.53;;;4.97;;
16699;SDS011;8466;52.286;21.124;2023-09-08T10:31:24;12.77;;;5.80;;
16699;SDS011;8466;52.286;21.124;2023-09-08T10:33:54;5.75;;;5.18;;
16699;SDS011;8466;52.286;21.124;2023-09-08T10:36:24;8.43;;;5.45;;
16699;SDS011;8466;52.286;21.124;2023-09-08T10:38:54;7.70;;;5.53;;
16699;SDS011;8466;52.286;21.124;2023-09-08T10:42:19;5.75;;;4.97;;
16699;SDS011;8466;52.286;21.124;2023-09-08T10:44:58;8.27;;;5.40;;
16699;SDS011;8466;52.286;21.124;2023-09-08T10:47:30;10.32;;;6.50;;
16699;SDS011;8466;52.286;21.124;2023-09-08T10:50:01;9.50;;;5.45;;
16699;SDS011;8466;52.286;21.124;2023-09-08T10:52:31;6.85;;;5.55;;
16699;SDS011;8466;52.286;21.124;2023-09-08T10:55:03;8.43;;;5.25;;
16699;SDS011;8466;52.286;21.124;2023-09-08T10:57:33;6.47;;;5.50;;
16699;SDS011;8466;52.286;21.124;2023-09-08T11:00:02;8.00;;;5.25;;
16699;SDS011;8466;52.286;21.124;2023-09-08T11:02:39;10.85;;;5.80;;
16699;SDS011;8466;52.286;21.124;2023-09-08T11:05:10;5.57;;;5.07;;
16699;SDS011;8466;52.286;21.124;2023-09-08T11:07:41;10.13;;;5.25;;
16699;SDS011;8466;52.286;21.124;2023-09-08T11:10:13;5.80;;;5.20;;
16699;SDS011;8466;52.286;21.124;2023-09-08T11:12:42;6.15;;;5.30;;
16699;SDS011;8466;52.286;21.124;2023-09-08T11:15:10;5.00;;;4.53;;
16699;SDS011;8466;52.286;21.124;2023-09-08T11:17:39;6.20;;;5.00;;
16699;SDS011;8466;52.286;21.124;2023-09-08T11:20:09;8.10;;;6.15;;
16699;SDS011;8466;52.286;21.124;2023-09-08T11:22:39;7.35;;;5.25;;
16699;SDS011;8466;52.286;21.124;2023-09-08T11:25:08;6.40;;;5.80;;
16699;SDS011;8466;52.286;21.124;2023-09-08T11:27:39;6.22;;;5.40;;
16699;SDS011;8466;52.286;21.124;2023-09-08T11:30:08;7.40;;;5.28;;
16699;SDS011;8466;52.286;21.124;2023-09-08T11:32:38;5.38;;;4.97;;
16699;SDS011;8466;52.286;21.124;2023-09-08T11:35:08;5.68;;;5.15;;
16699;SDS011;8466;52.286;21.124;2023-09-08T11:37:38;5.95;;;5.00;;
16699;SDS011;8466;52.286;21.124;2023-09-08T11:40:08;8.82;;;6.20;;
16699;SDS011;8466;52.286;21.124;2023-09-08T11:42:41;5.85;;;5.22;;
16699;SDS011;8466;52.286;21.124;2023-09-08T11:45:11;6.47;;;5.15;;
16699;SDS011;8466;52.286;21.124;2023-09-08T11:47:41;5.80;;;5.20;;
16699;SDS011;8466;52.286;21.124;2023-09-08T11:50:11;7.45;;;5.07;;
16699;SDS011;8466;52.286;21.124;2023-09-08T11:52:43;5.45;;;4.75;;
16699;SDS011;8466;52.286;21.124;2023-09-08T11:55:12;5.28;;;4.88;;
16699;SDS011;8466;52.286;21.124;2023-09-08T11:57:44;5.47;;;4.97;;
16699;SDS011;8466;52.286;21.124;2023-09-08T12:00:15;5.80;;;4.90;;
16699;SDS011;8466;52.286;21.124;2023-09-08T12:02:47;7.63;;;5.35;;
16699;SDS011;8466;52.286;21.124;2023-09-08T12:05:20;6.00;;;5.40;;
16699;SDS011;8466;52.286;21.124;2023-09-08T12:07:50;6.82;;;5.70;;
16699;SDS011;8466;52.286;21.124;2023-09-08T12:10:20;6.40;;;5.60;;
16699;SDS011;8466;52.286;21.124;2023-09-08T12:12:51;5.90;;;5.00;;
16699;SDS011;8466;52.286;21.124;2023-09-08T12:15:31;5.72;;;5.22;;
16699;SDS011;8466;52.286;21.124;2023-09-08T12:18:01;6.25;;;5.50;;
16699;SDS011;8466;52.286;21.124;2023-09-08T12:20:30;7.05;;;5.45;;
16699;SDS011;8466;52.286;21.124;2023-09-08T12:23:00;5.43;;;4.43;;
16699;SDS011;8466;52.286;21.124;2023-09-08T12:25:29;5.93;;;5.50;;
16699;SDS011;8466;52.286;21.124;2023-09-08T12:28:05;6.40;;;5.22;;
16699;SDS011;8466;52.286;21.124;2023-09-08T12:30:34;7.38;;;5.57;;
16699;SDS011;8466;52.286;21.124;2023-09-08T12:33:02;7.95;;;5.82;;
16699;SDS011;8466;52.286;21.124;2023-09-08T12:35:31;5.72;;;4.97;;
16699;SDS011;8466;52.286;21.124;2023-09-08T12:38:00;6.13;;;5.50;;
16699;SDS011;8466;52.286;21.124;2023-09-08T12:40:30;6.47;;;5.80;;
16699;SDS011;8466;52.286;21.124;2023-09-08T12:43:01;6.28;;;5.32;;
16699;SDS011;8466;52.286;21.124;2023-09-08T12:45:52;6.57;;;5.97;;
16699;SDS011;8466;52.286;21.124;2023-09-08T12:48:21;7.93;;;4.85;;
16699;SDS011;8466;52.286;21.124;2023-09-08T12:50:49;7.05;;;5.22;;
16699;SDS011;8466;52.286;21.124;2023-09-08T12:53:18;8.40;;;5.10;;
16699;SDS011;8466;52.286;21.124;2023-09-08T12:55:48;5.82;;;4.93;;
16699;SDS011;8466;52.286;21.124;2023-09-08T12:58:17;5.50;;;5.07;;
16699;SDS011;8466;52.286;21.124;2023-09-08T13:00:46;6.82;;;5.43;;
16699;SDS011;8466;52.286;21.124;2023-09-08T13:03:16;5.70;;;5.05;;
16699;SDS011;8466;52.286;21.124;2023-09-08T13:05:44;5.82;;;5.25;;
16699;SDS011;8466;52.286;21.124;2023-09-08T13:08:13;6.65;;;5.50;;
16699;SDS011;8466;52.286;21.124;2023-09-08T13:10:42;11.15;;;5.95;;
16699;SDS011;8466;52.286;21.124;2023-09-08T13:13:11;6.10;;;5.60;;
16699;SDS011;8466;52.286;21.124;2023-09-08T13:15:39;5.50;;;5.00;;
16699;SDS011;8466;52.286;21.124;2023-09-08T13:18:09;8.95;;;5.28;;
16699;SDS011;8466;52.286;21.124;2023-09-08T13:20:39;6.10;;;5.60;;
16699;SDS011;8466;52.286;21.124;2023-09-08T13:23:08;6.97;;;5.25;;
16699;SDS011;8466;52.286;21.124;2023-09-08T13:25:36;5.63;;;5.18;;
16699;SDS011;8466;52.286;21.124;2023-09-08T13:28:06;5.75;;;5.13;;
16699;SDS011;8466;52.286;21.124;2023-09-08T13:30:35;5.32;;;4.93;;
16699;SDS011;8466;52.286;21.124;2023-09-08T13:33:04;6.25;;;5.20;;
16699;SDS011;8466;52.286;21.124;2023-09-08T13:35:34;6.75;;;5.65;;
16699;SDS011;8466;52.286;21.124;2023-09-08T13:38:04;4.95;;;4.55;;
16699;SDS011;8466;52.286;21.124;2023-09-08T13:40:33;5.50;;;5.00;;
16699;SDS011;8466;52.286;21.124;2023-09-08T13:43:01;9.70;;;5.30;;
16699;SDS011;8466;52.286;21.124;2023-09-08T13:45:30;5.90;;;5.40;;
16699;SDS011;8466;52.286;21.124;2023-09-08T13:47:59;5.85;;;5.30;;
16699;SDS011;8466;52.286;21.124;2023-09-08T13:50:28;5.90;;;5.30;;
16699;SDS011;8466;52.286;21.124;2023-09-08T13:52:59;5.65;;;5.05;;
16699;SDS011;8466;52.286;21.124;2023-09-08T13:55:31;5.40;;;5.00;;
16699;SDS011;8466;52.286;21.124;2023-09-08T13:58:04;5.13;;;4.72;;
16699;SDS011;8466;52.286;21.124;2023-09-08T14:00:36;5.15;;;4.75;;
16699;SDS011;8466;52.286;21.124;2023-09-08T14:03:11;6.18;;;5.15;;
16699;SDS011;8466;52.286;21.124;2023-09-08T14:05:41;5.47;;;5.05;;
16699;SDS011;8466;52.286;21.124;2023-09-08T14:08:16;6.00;;;5.50;;
16699;SDS011;8466;52.286;21.124;2023-09-08T14:10:56;5.45;;;4.88;;
16699;SDS011;8466;52.286;21.124;2023-09-08T14:13:28;5.07;;;4.57;;
16699;SDS011;8466;52.286;21.124;2023-09-08T14:15:57;4.88;;;4.38;;
16699;SDS011;8466;52.286;21.124;2023-09-08T14:18:28;5.32;;;4.93;;
16699;SDS011;8466;52.286;21.124;2023-09-08T14:20:57;4.93;;;4.40;;
16699;SDS011;8466;52.286;21.124;2023-09-08T14:23:25;6.35;;;4.82;;
16699;SDS011;8466;52.286;21.124;2023-09-08T14:25:56;5.20;;;4.75;;
16699;SDS011;8466;52.286;21.124;2023-09-08T14:28:25;5.13;;;4.72;;
16699;SDS011;8466;52.286;21.124;2023-09-08T14:30:54;5.15;;;4.65;;
16699;SDS011;8466;52.286;21.124;2023-09-08T14:33:23;4.97;;;4.57;;
16699;SDS011;8466;52.286;21.124;2023-09-08T14:35:51;5.10;;;4.60;;
16699;SDS011;8466;52.286;21.124;2023-09-08T14:38:21;4.90;;;4.50;;
16699;SDS011;8466;52.286;21.124;2023-09-08T14:40:57;5.05;;;4.55;;
16699;SDS011;8466;52.286;21.124;2023-09-08T14:43:27;4.88;;;4.47;;
16699;SDS011;8466;52.286;21.124;2023-09-08T14:45:56;5.60;;;4.28;;
16699;SDS011;8466;52.286;21.124;2023-09-08T14:48:25;4.68;;;4.07;;
16699;SDS011;8466;52.286;21.124;2023-09-08T14:50:54;4.63;;;4.22;;
16699;SDS011;8466;52.286;21.124;2023-09-08T14:53:22;4.95;;;4.18;;
16699;SDS011;8466;52.286;21.124;2023-09-08T14:55:51;4.70;;;4.30;;
16699;SDS011;8466;52.286;21.124;2023-09-08T14:58:25;4.18;;;3.88;;
16699;SDS011;8466;52.286;21.124;2023-09-08T15:01:00;6.22;;;4.05;;